createdAt,value
2019-03-01T00:02:06.718Z,96239.45
2019-03-01T00:05:34.563Z,96247.62
2019-03-01T00:08:18.075Z,96250.52
2019-03-01T00:11:45.889Z,96236.16
2019-03-01T00:14:46.990Z,96233.83
2019-03-01T00:17:59.820Z,96230.11
2019-03-01T00:21:02.222Z,96241.61
2019-03-01T00:24:09.840Z,96238.67
2019-03-01T00:27:37.746Z,96239.81
2019-03-01T00:31:05.626Z,96243.50
2019-03-01T00:34:33.512Z,96237.48
2019-03-01T00:38:01.364Z,96209.12
2019-03-01T00:40:58.212Z,96211.27
2019-03-01T00:44:26.089Z,96209.30
2019-03-01T00:47:09.176Z,96211.88
2019-03-01T00:49:58.952Z,96219.44
2019-03-01T00:52:48.734Z,96217.50
2019-03-01T00:55:38.497Z,96216.69
2019-03-01T00:58:28.216Z,96188.19
2019-03-01T01:01:10.386Z,96192.27
2019-03-01T01:04:13.094Z,96204.61
2019-03-01T01:06:55.546Z,96173.00
2019-03-01T01:09:45.243Z,96194.09
2019-03-01T01:12:28.080Z,96189.94
2019-03-01T01:15:17.804Z,96175.70
2019-03-01T01:18:00.065Z,96156.55
2019-03-01T01:20:49.796Z,96167.74
2019-03-01T01:23:32.151Z,96154.08
2019-03-01T01:26:21.874Z,96165.81
2019-03-01T01:29:03.918Z,96162.88
2019-03-01T01:31:53.643Z,96160.37
2019-03-01T01:34:35.842Z,96139.58
2019-03-01T01:37:25.564Z,96136.86
2019-03-01T01:40:08.251Z,96123.80
2019-03-01T01:42:57.960Z,96131.39
2019-03-01T01:45:40.464Z,96121.26
2019-03-01T01:48:30.160Z,96134.07
2019-03-01T01:51:12.534Z,96128.81
2019-03-01T01:54:02.254Z,96110.31
2019-03-01T01:56:45.090Z,96125.34
2019-03-01T01:59:34.777Z,96114.21
2019-03-01T02:02:17.122Z,96092.78
2019-03-01T02:05:07.181Z,96109.23
2019-03-01T02:07:56.909Z,96109.80
2019-03-01T02:10:46.660Z,96112.92
2019-03-01T02:16:41.526Z,96119.11
2019-03-01T02:19:24.391Z,96101.97
2019-03-01T02:22:14.139Z,96099.25
2019-03-01T02:25:03.858Z,96099.08
2019-03-01T02:27:53.555Z,96094.60
2019-03-01T02:30:36.028Z,96089.16
2019-03-01T02:36:29.418Z,96086.05
2019-03-01T02:39:11.510Z,96083.33
2019-03-01T02:42:01.305Z,96084.88
2019-03-01T02:44:51.027Z,96042.42
2019-03-01T02:47:40.827Z,96069.92
2019-03-01T02:50:30.593Z,96065.45
2019-03-01T02:53:39.495Z,96027.89
2019-03-01T02:56:29.308Z,96050.70
2019-03-01T02:59:19.069Z,96047.20
2019-03-01T03:02:08.868Z,96033.97
2019-03-01T03:04:58.563Z,96047.59
2019-03-01T03:07:50.472Z,96000.89
2019-03-01T03:10:32.805Z,96006.72
2019-03-01T03:13:22.515Z,96034.56
2019-03-01T03:16:05.260Z,96026.41
2019-03-01T03:18:54.979Z,96030.30
2019-03-01T03:21:36.999Z,96022.14
2019-03-01T03:24:26.729Z,96028.58
2019-03-01T03:27:09.095Z,96020.03
2019-03-01T03:30:17.923Z,96021.78
2019-03-01T03:33:00.395Z,96020.20
2019-03-01T03:35:50.148Z,96007.58
2019-03-01T03:38:32.673Z,96004.84
2019-03-01T03:41:22.343Z,96006.42
2019-03-01T03:44:05.205Z,96006.24
2019-03-01T03:46:54.929Z,96003.34
2019-03-01T03:49:37.286Z,95996.75
2019-03-01T03:52:27.031Z,95994.42
2019-03-01T03:55:10.155Z,96002.38
2019-03-01T03:57:59.907Z,95995.76
2019-03-01T04:00:42.507Z,96000.23
2019-03-01T04:03:32.335Z,96007.21
2019-03-01T04:06:22.303Z,95983.61
2019-03-01T04:09:12.039Z,96000.28
2019-03-01T04:12:01.799Z,95999.08
2019-03-01T04:17:47.897Z,95980.14
2019-03-01T04:20:37.726Z,95985.58
2019-03-01T04:23:27.465Z,95987.69
2019-03-01T04:26:17.214Z,95988.23
2019-03-01T04:29:18.806Z,95977.72
2019-03-01T04:32:01.268Z,95981.04
2019-03-01T04:34:51.011Z,95980.76
2019-03-01T04:37:33.434Z,95973.54
2019-03-01T04:40:23.190Z,95968.25
2019-03-01T04:43:06.983Z,95954.41
2019-03-01T04:45:56.693Z,95972.75
2019-03-01T04:48:39.108Z,95968.46
2019-03-01T04:51:28.844Z,95964.36
2019-03-01T04:54:11.650Z,95942.38
2019-03-01T04:57:01.344Z,95957.98
2019-03-01T04:59:45.607Z,95941.30
2019-03-01T05:02:35.301Z,95933.19
2019-03-01T05:05:17.665Z,95912.03
2019-03-01T05:08:07.372Z,95918.25
2019-03-01T05:10:49.934Z,95911.88
2019-03-01T05:13:39.716Z,95908.78
2019-03-01T05:16:10.400Z,95904.34
2019-03-01T05:22:03.805Z,95901.80
2019-03-01T05:24:46.050Z,95895.02
2019-03-01T05:30:29.546Z,95891.94
2019-03-01T05:33:19.412Z,95870.72
2019-03-01T05:36:09.121Z,95870.56
2019-03-01T05:38:58.921Z,95863.98
2019-03-01T05:44:42.767Z,95832.59
2019-03-01T05:47:32.583Z,95845.96
2019-03-01T05:50:35.265Z,95854.69
2019-03-01T05:53:17.593Z,95850.19
2019-03-01T05:56:07.305Z,95862.81
2019-03-01T05:58:53.483Z,95845.47
2019-03-01T06:02:21.374Z,95871.17
2019-03-01T06:05:06.619Z,95862.36
2019-03-01T06:08:34.515Z,95864.57
2019-03-01T06:11:25.430Z,95868.43
2019-03-01T06:14:40.596Z,95864.06
2019-03-01T06:17:42.655Z,95851.17
2019-03-01T06:21:10.506Z,95855.80
2019-03-01T06:23:56.598Z,95854.27
2019-03-01T06:27:24.451Z,95850.91
2019-03-01T06:30:22.197Z,95852.88
2019-03-01T06:33:34.623Z,95862.37
2019-03-01T06:36:23.075Z,95862.33
2019-03-01T06:43:11.811Z,95870.47
2019-03-01T06:46:39.671Z,95861.31
2019-03-01T06:49:26.917Z,95871.77
2019-03-01T06:55:39.539Z,95855.58
2019-03-01T06:58:35.407Z,95874.31
2019-03-01T07:01:24.881Z,95887.13
2019-03-01T07:04:18.395Z,95877.84
2019-03-01T07:07:02.237Z,95886.42
2019-03-01T07:09:44.410Z,95890.66
2019-03-01T07:12:34.197Z,95874.31
2019-03-01T07:15:24.091Z,95880.91
2019-03-01T07:18:14.002Z,95878.20
2019-03-01T07:21:03.774Z,95894.73
2019-03-01T07:23:53.557Z,95890.63
2019-03-01T07:26:43.329Z,95888.92
2019-03-01T07:29:33.179Z,95869.62
2019-03-01T07:32:03.800Z,95894.73
2019-03-01T07:34:53.515Z,95918.36
2019-03-01T07:37:36.438Z,95925.09
2019-03-01T07:40:26.177Z,95920.02
2019-03-01T07:43:28.559Z,95930.76
2019-03-01T07:46:10.735Z,95963.34
2019-03-01T07:49:00.417Z,95960.77
2019-03-01T07:51:42.332Z,95977.31
2019-03-01T07:54:32.045Z,95990.87
2019-03-01T07:57:14.943Z,95989.15
2019-03-01T08:00:25.959Z,95990.88
2019-03-01T08:03:07.971Z,96003.95
2019-03-01T08:05:57.675Z,95983.16
2019-03-01T08:08:40.470Z,96015.17
2019-03-01T08:11:31.742Z,96006.80
2019-03-01T08:14:14.524Z,96000.84
2019-03-01T08:17:04.262Z,95995.91
2019-03-01T08:19:47.012Z,95995.02
2019-03-01T08:22:47.630Z,95992.41
2019-03-01T08:25:23.419Z,96014.50
2019-03-01T08:28:13.767Z,96006.64
2019-03-01T08:30:59.699Z,96005.29
2019-03-01T08:33:49.408Z,95961.20
2019-03-01T08:36:31.936Z,95993.66
2019-03-01T08:39:21.659Z,95971.88
2019-03-01T08:42:05.736Z,95970.66
2019-03-01T08:44:58.293Z,95991.52
2019-03-01T08:47:39.052Z,95987.48
2019-03-01T08:50:28.796Z,95998.06
2019-03-01T08:53:15.139Z,95995.34
2019-03-01T08:55:56.067Z,95999.47
2019-03-01T08:58:45.787Z,96000.23
2019-03-01T09:01:35.475Z,96003.53
2019-03-01T09:04:25.194Z,96007.53
2019-03-01T09:07:07.245Z,95994.25
2019-03-01T09:09:57.957Z,95987.86
2019-03-01T09:12:40.766Z,95993.52
2019-03-01T09:15:30.442Z,95985.02
2019-03-01T09:18:14.565Z,95977.50
2019-03-01T09:21:06.044Z,95973.06
2019-03-01T09:23:54.853Z,95979.27
2019-03-01T09:26:43.101Z,95984.77
2019-03-01T09:29:25.640Z,95976.19
2019-03-01T09:32:15.393Z,95979.05
2019-03-01T09:35:17.017Z,95983.39
2019-03-01T09:38:07.631Z,95980.88
2019-03-01T09:40:50.589Z,95984.30
2019-03-01T09:43:40.311Z,95972.91
2019-03-01T09:46:24.732Z,95981.19
2019-03-01T09:49:13.789Z,95951.31
2019-03-01T09:51:56.457Z,95963.12
2019-03-01T09:54:46.191Z,95958.77
2019-03-01T09:57:28.137Z,95951.84
2019-03-01T10:00:19.225Z,95947.69
2019-03-01T10:03:01.231Z,95954.72
2019-03-01T10:05:50.947Z,95931.17
2019-03-01T10:08:33.865Z,95930.82
2019-03-01T10:11:23.609Z,95940.88
2019-03-01T10:14:05.567Z,95942.11
2019-03-01T10:16:56.144Z,95917.52
2019-03-01T10:19:38.101Z,95934.66
2019-03-01T10:22:27.827Z,95940.75
2019-03-01T10:25:11.087Z,95932.86
2019-03-01T10:28:00.831Z,95944.94
2019-03-01T10:30:43.937Z,95933.75
2019-03-01T10:33:52.755Z,95919.64
2019-03-01T10:36:35.097Z,95938.86
2019-03-01T10:39:24.831Z,95951.20
2019-03-01T10:42:09.184Z,95937.14
2019-03-01T10:44:58.942Z,95942.23
2019-03-01T10:47:41.751Z,95930.03
2019-03-01T10:50:31.449Z,95923.48
2019-03-01T10:53:13.920Z,95953.18
2019-03-01T10:56:03.592Z,95930.14
2019-03-01T10:58:47.630Z,95931.55
2019-03-01T11:01:37.340Z,95952.61
2019-03-01T11:04:19.683Z,95958.48
2019-03-01T11:07:09.425Z,95956.08
2019-03-01T11:09:52.030Z,95950.48
2019-03-01T11:13:00.833Z,95942.23
2019-03-01T11:15:50.509Z,95941.03
2019-03-01T11:18:32.961Z,95935.62
2019-03-01T11:21:22.773Z,95940.88
2019-03-01T11:24:12.511Z,95934.72
2019-03-01T11:27:02.252Z,95920.23
2019-03-01T11:29:44.216Z,95946.02
2019-03-01T11:32:33.924Z,95939.84
2019-03-01T11:35:16.044Z,95942.73
2019-03-01T11:38:05.865Z,95932.05
2019-03-01T11:40:48.048Z,95939.45
2019-03-01T11:43:37.745Z,95938.60
2019-03-01T11:46:20.064Z,95949.45
2019-03-01T11:49:09.817Z,95942.80
2019-03-01T11:51:54.345Z,95937.98
2019-03-01T11:54:44.076Z,95942.62
2019-03-01T11:57:26.188Z,95946.91
2019-03-01T12:00:18.268Z,95943.75
2019-03-01T12:03:01.278Z,95927.95
2019-03-01T12:05:51.362Z,95947.54
2019-03-01T12:08:33.828Z,95935.70
2019-03-01T12:11:23.570Z,95935.70
2019-03-01T12:14:06.126Z,95941.69
2019-03-01T12:19:57.580Z,95931.55
2019-03-01T12:22:47.330Z,95923.58
2019-03-01T12:25:30.231Z,95927.97
2019-03-01T12:28:19.969Z,95922.92
2019-03-01T12:31:09.676Z,95933.55
2019-03-01T12:33:52.568Z,95937.36
2019-03-01T12:36:42.346Z,95936.61
2019-03-01T12:39:32.049Z,95933.11
2019-03-01T12:42:18.178Z,95915.73
2019-03-01T12:45:00.366Z,95937.23
2019-03-01T12:47:50.144Z,95940.33
2019-03-01T12:50:39.932Z,95947.21
2019-03-01T12:53:29.674Z,95941.69
2019-03-01T12:56:19.396Z,95956.66
2019-03-01T12:59:09.224Z,95926.28
2019-03-01T13:01:59.046Z,95951.85
2019-03-01T13:04:49.887Z,95946.37
2019-03-01T13:07:33.539Z,95950.28
2019-03-01T13:10:25.354Z,95957.49
2019-03-01T13:13:15.112Z,95952.64
2019-03-01T13:16:26.750Z,95942.19
2019-03-01T13:19:08.396Z,95946.81
2019-03-01T13:21:58.468Z,95944.94
2019-03-01T13:24:50.392Z,95949.98
2019-03-01T13:27:32.053Z,95947.08
2019-03-01T13:30:18.409Z,95947.38
2019-03-01T13:33:08.231Z,95943.27
2019-03-01T13:36:00.001Z,95950.67
2019-03-01T13:38:42.733Z,95924.63
2019-03-01T13:41:34.042Z,95940.16
2019-03-01T13:44:17.263Z,95917.27
2019-03-01T13:47:08.751Z,95942.32
2019-03-01T13:49:51.468Z,95948.97
2019-03-01T13:52:41.251Z,95947.74
2019-03-01T13:55:50.141Z,95948.31
2019-03-01T13:58:39.935Z,95949.67
2019-03-01T14:01:29.789Z,95954.88
2019-03-01T14:04:31.363Z,95955.48
2019-03-01T14:07:13.980Z,95959.17
2019-03-01T14:13:25.985Z,95954.39
2019-03-01T14:16:08.859Z,95952.77
2019-03-01T14:18:58.813Z,95956.67
2019-03-01T14:21:49.043Z,95962.28
2019-03-01T14:24:38.843Z,95959.52
2019-03-01T14:27:29.527Z,95968.79
2019-03-01T14:30:13.530Z,95971.69
2019-03-01T14:33:03.254Z,95942.05
2019-03-01T14:35:45.891Z,95974.44
2019-03-01T14:38:35.698Z,95955.18
2019-03-01T14:41:18.385Z,95982.85
2019-03-01T14:44:08.097Z,95980.05
2019-03-01T14:46:57.827Z,95982.81
2019-03-01T14:49:47.581Z,95985.64
2019-03-01T14:52:30.573Z,95990.81
2019-03-01T14:55:40.921Z,95972.04
2019-03-01T14:58:26.077Z,95994.02
2019-03-01T15:01:37.361Z,95989.88
2019-03-01T15:04:46.165Z,95992.77
2019-03-01T15:07:30.758Z,96000.64
2019-03-01T15:10:21.494Z,95995.90
2019-03-01T15:13:11.290Z,96002.02
2019-03-01T15:16:04.719Z,96003.14
2019-03-01T15:18:45.724Z,96009.28
2019-03-01T15:21:37.554Z,96006.47
2019-03-01T15:24:19.696Z,96011.39
2019-03-01T15:27:09.473Z,96001.14
2019-03-01T15:30:12.008Z,96016.46
2019-03-01T15:32:54.636Z,96019.67
2019-03-01T15:35:44.384Z,96025.50
2019-03-01T15:38:28.838Z,96009.23
2019-03-01T15:41:18.667Z,96023.24
2019-03-01T15:44:01.714Z,96025.86
2019-03-01T15:46:51.510Z,96029.28
2019-03-01T15:49:34.528Z,96039.09
2019-03-01T15:52:24.254Z,96044.11
2019-03-01T15:55:21.555Z,96051.46
2019-03-01T15:58:11.306Z,96049.59
2019-03-01T16:00:53.475Z,96065.20
2019-03-01T16:03:43.499Z,96058.55
2019-03-01T16:06:27.454Z,96075.04
2019-03-01T16:09:17.566Z,96069.69
2019-03-01T16:12:00.452Z,96051.46
2019-03-01T16:14:50.185Z,96077.38
2019-03-01T16:17:32.440Z,96089.95
2019-03-01T16:20:25.170Z,96088.38
2019-03-01T16:23:06.414Z,96079.38
2019-03-01T16:25:57.042Z,96084.13
2019-03-01T16:28:40.354Z,96080.84
2019-03-01T16:31:11.064Z,96091.16
2019-03-01T16:34:00.984Z,96094.65
2019-03-01T16:36:49.340Z,96099.91
2019-03-01T16:40:00.246Z,96104.38
2019-03-01T16:42:42.680Z,96095.11
2019-03-01T16:45:32.605Z,96095.69
2019-03-01T16:48:22.446Z,96104.70
2019-03-01T16:51:24.845Z,96110.44
2019-03-01T16:54:09.062Z,96118.09
2019-03-01T16:56:58.882Z,96120.95
2019-03-01T16:59:48.587Z,96128.77
2019-03-01T17:02:31.078Z,96119.52
2019-03-01T17:05:20.824Z,96120.73
2019-03-01T17:08:10.625Z,96123.83
2019-03-01T17:11:19.482Z,96127.32
2019-03-01T17:14:09.224Z,96134.09
2019-03-01T17:16:52.098Z,96144.64
2019-03-01T17:19:41.808Z,96149.34
2019-03-01T17:22:26.640Z,96149.41
2019-03-01T17:25:19.374Z,96150.76
2019-03-01T17:28:01.555Z,96154.41
2019-03-01T17:30:51.762Z,96153.25
2019-03-01T17:33:35.398Z,96162.64
2019-03-01T17:36:25.171Z,96167.66
2019-03-01T17:39:07.333Z,96145.63
2019-03-01T17:41:57.050Z,96173.80
2019-03-01T17:44:41.365Z,96163.27
2019-03-01T17:47:50.433Z,96168.68
2019-03-01T17:50:33.257Z,96176.02
2019-03-01T17:53:23.011Z,96176.52
2019-03-01T17:56:05.579Z,96179.53
2019-03-01T17:58:55.291Z,96182.24
2019-03-01T18:01:39.010Z,96184.84
2019-03-01T18:04:28.746Z,96191.69
2019-03-01T18:07:18.487Z,96203.31
2019-03-01T18:10:01.187Z,96189.66
2019-03-01T18:12:53.176Z,96186.42
2019-03-01T18:15:35.745Z,96202.86
2019-03-01T18:18:17.597Z,96209.97
2019-03-01T18:21:10.172Z,96208.20
2019-03-01T18:23:51.299Z,96208.57
2019-03-01T18:26:41.377Z,96224.90
2019-03-01T18:29:31.170Z,96216.41
2019-03-01T18:32:34.002Z,96229.61
2019-03-01T18:35:16.843Z,96229.87
2019-03-01T18:38:06.609Z,96226.94
2019-03-01T18:40:51.809Z,96224.45
2019-03-01T18:43:40.019Z,96214.41
2019-03-01T18:46:22.749Z,96221.89
2019-03-01T18:52:14.463Z,96196.77
2019-03-01T18:55:05.948Z,96205.38
2019-03-01T18:57:55.639Z,96187.52
2019-03-01T19:00:38.061Z,96216.44
2019-03-01T19:03:27.857Z,96218.66
2019-03-01T19:06:17.674Z,96215.16
2019-03-01T19:12:22.286Z,96220.87
2019-03-01T19:15:15.498Z,96229.34
2019-03-01T19:17:56.803Z,96229.70
2019-03-01T19:20:46.724Z,96229.29
2019-03-01T19:23:36.432Z,96233.40
2019-03-01T19:26:18.603Z,96235.20
2019-03-01T19:29:08.451Z,96232.83
2019-03-01T19:32:11.123Z,96225.38
2019-03-01T19:34:53.986Z,96236.70
2019-03-01T19:37:45.809Z,96230.69
2019-03-01T19:40:27.592Z,96241.52
2019-03-01T19:43:17.324Z,96246.09
2019-03-01T19:45:59.619Z,96250.44
2019-03-01T19:48:49.336Z,96231.01
2019-03-01T19:51:33.738Z,96260.63
2019-03-01T19:54:23.646Z,96262.42
2019-03-01T19:57:13.349Z,96274.23
2019-03-01T19:59:55.798Z,96258.84
2019-03-01T20:02:45.671Z,96269.03
2019-03-01T20:05:31.377Z,96261.92
2019-03-01T20:08:19.268Z,96275.45
2019-03-01T20:11:01.207Z,96265.28
2019-03-01T20:13:53.761Z,96282.44
2019-03-01T20:16:35.472Z,96271.90
2019-03-01T20:19:25.216Z,96263.20
2019-03-01T20:22:10.479Z,96284.44
2019-03-01T20:25:00.263Z,96285.69
2019-03-01T20:27:42.354Z,96267.32
2019-03-01T20:30:32.223Z,96281.93
2019-03-01T20:33:23.562Z,96282.77
2019-03-01T20:36:06.583Z,96277.16
2019-03-01T20:38:52.616Z,96287.55
2019-03-01T20:41:35.997Z,96287.17
2019-03-01T20:44:26.380Z,96277.34
2019-03-01T20:47:08.558Z,96292.30
2019-03-01T20:49:58.304Z,96296.87
2019-03-01T20:52:40.570Z,96298.38
2019-03-01T20:55:33.237Z,96296.80
2019-03-01T20:58:15.994Z,96300.52
2019-03-01T21:01:05.735Z,96299.36
2019-03-01T21:03:48.674Z,96295.59
2019-03-01T21:06:40.564Z,96307.27
2019-03-01T21:09:23.017Z,96312.84
2019-03-01T21:12:12.842Z,96314.91
2019-03-01T21:14:55.262Z,96314.41
2019-03-01T21:17:45.050Z,96315.69
2019-03-01T21:20:27.133Z,96328.47
2019-03-01T21:23:16.852Z,96323.62
2019-03-01T21:25:59.052Z,96331.03
2019-03-01T21:28:48.931Z,96337.59
2019-03-01T21:31:31.796Z,96330.59
2019-03-01T21:34:22.395Z,96335.72
2019-03-01T21:37:05.792Z,96339.14
2019-03-01T21:39:58.880Z,96318.84
2019-03-01T21:42:40.095Z,96317.78
2019-03-01T21:45:29.845Z,96339.66
2019-03-01T21:48:11.853Z,96339.36
2019-03-01T21:51:01.547Z,96338.24
2019-03-01T21:53:43.873Z,96313.92
2019-03-01T21:56:14.521Z,96345.62
2019-03-01T21:59:04.256Z,96347.08
2019-03-01T22:02:07.169Z,96354.14
2019-03-01T22:04:50.051Z,96339.15
2019-03-01T22:07:39.769Z,96348.47
2019-03-01T22:10:22.594Z,96350.92
2019-03-01T22:13:12.533Z,96347.06
2019-03-01T22:15:57.599Z,96351.91
2019-03-01T22:18:46.451Z,96329.81
2019-03-01T22:21:30.011Z,96356.59
2019-03-01T22:24:19.714Z,96353.13
2019-03-01T22:27:02.601Z,96348.14
2019-03-01T22:29:52.381Z,96358.20
2019-03-01T22:32:36.573Z,96336.38
2019-03-01T22:35:26.349Z,96351.85
2019-03-01T22:38:09.020Z,96346.94
2019-03-01T22:41:00.593Z,96338.30
2019-03-01T22:43:42.467Z,96336.52
2019-03-01T22:46:32.226Z,96338.24
2019-03-01T22:49:14.815Z,96341.44
2019-03-01T22:52:04.547Z,96343.58
2019-03-01T22:54:47.482Z,96334.52
2019-03-01T22:57:37.179Z,96339.80
2019-03-01T23:00:38.181Z,96337.31
2019-03-01T23:03:28.357Z,96335.52
2019-03-01T23:06:18.105Z,96334.39
2019-03-01T23:09:00.687Z,96334.95
2019-03-01T23:11:50.561Z,96333.38
2019-03-01T23:14:40.387Z,96333.31
2019-03-01T23:17:30.396Z,96331.60
2019-03-01T23:20:14.646Z,96301.81
2019-03-01T23:23:04.331Z,96328.05
2019-03-01T23:25:54.055Z,96327.33
2019-03-01T23:28:44.589Z,96306.95
2019-03-01T23:31:28.445Z,96326.05
2019-03-01T23:34:18.187Z,96325.75
2019-03-01T23:37:00.625Z,96324.39
2019-03-01T23:39:51.806Z,96328.03
2019-03-01T23:42:34.411Z,96314.22
2019-03-01T23:45:24.483Z,96321.20
2019-03-01T23:48:07.127Z,96323.54
2019-03-01T23:50:56.870Z,96321.34
2019-03-01T23:53:39.201Z,96330.97
2019-03-01T23:56:29.681Z,96330.52
2019-03-01T23:59:12.840Z,96327.05
